Airfield :
LOGIN :

Register | Disclaimer

   EN    FR    IT 

 










Legend :    VFR   Marginal VFR   IFR   Intensive IFR   Very Intensive IFR
Visi :
Ceiling :
>= 8 km
>= 3000ft
5 to 8 km
1000 to 3000 ft
1500m to 5 km
500 to 1000 ft
800 to 1500m
200 to 500 ft
< 800m
< 200 ft
Symbols :   Thunderstorms  Fog  Heavy snow  Heavy precipitations  Wind > 20 kt
SIGMETs :     Misc.  Thunderstorms  Icing  Turbulence  Mountain Waves  Volcanic Ashes






- Airport Elevation : 778 ft
- IATA code : BRQ


LKTB - Brno-Turany

CURRENT METAR :
  • 031630Z 31006KT 9999 SCT011 BKN026 20/18 Q1008 NOSIG

EXPIRED METARs :
  • 031600Z VRB02KT 9999 BKN018 20/17 Q1008 NOSIG
  • 031530Z VRB02KT 9999 SCT019 20/17 Q1007 NOSIG
  • 031500Z 13003KT 110V170 9999 -RA BKN017 19/17 Q1008 NOSIG
  • 031436Z 15003KT 9999 -RA OVC017 19/17 Q1008 RMK REG QNH 1006
  • 031430Z 15004KT 9999 BKN017 19/17 Q1008 NOSIG

TAF TAF LKTB
Valid from the 03 at 12:00 until the 04 at 18:00 UTC


031100Z 0312/0418 15010KT 9999 SCT010 BKN033
TEMPO 0312/0318 7000 -RA SCT006 BKN026
PROB30
TEMPO 0312/0317 5000 SHRA SCT020CB
BECMG 0318/0321 05010KT 7000 -RA SCT010 BKN020
TEMPO 0321/0409 3000 RA BKN013
PROB30
TEMPO 0321/0401 TSRA SCT013CB



MET'MAP, your aeronautical weather chart ! - Copyright ORBIFLY December 2007 - Disclaimer

ORBIFLY MET'MAP TEAM :

Programming & Development : Alexandra Zaïnal
Concept & original design : Baudouin d'Aumeries
Assistance for programming : Marc-Olivier Méhu
Technical & hardware support : Manuel Goepfert

Contact : metmap@orbifly.com




SOURCES & CREDITS :

   NOAA